sensor_id;sensor_type;location;lat;lon;timestamp;pressure;altitude;pressure_sealevel;temperature;humidity
37170;BME280;23062;13.952;100.608;2023-01-16T00:02:37;1011.37;;;28.80;61.40
37170;BME280;23062;13.952;100.608;2023-01-16T00:07:04;1011.47;;;28.62;61.69
37170;BME280;23062;13.952;100.608;2023-01-16T00:11:30;1011.57;;;28.71;62.15
37170;BME280;23062;13.952;100.608;2023-01-16T00:15:56;1011.67;;;28.67;61.62
37170;BME280;23062;13.952;100.608;2023-01-16T00:20:23;1011.75;;;28.60;61.70
37170;BME280;23062;13.952;100.608;2023-01-16T00:24:49;1011.84;;;28.59;62.22
37170;BME280;23062;13.952;100.608;2023-01-16T00:29:15;1011.96;;;28.57;62.31
37170;BME280;23062;13.952;100.608;2023-01-16T00:33:41;1012.04;;;28.49;62.47
37170;BME280;23062;13.952;100.608;2023-01-16T00:38:07;1012.14;;;28.58;62.27
37170;BME280;23062;13.952;100.608;2023-01-16T00:42:33;1012.24;;;28.62;62.24
37170;BME280;23062;13.952;100.608;2023-01-16T00:46:59;1012.31;;;28.65;62.04
37170;BME280;23062;13.952;100.608;2023-01-16T00:51:26;1012.39;;;28.72;62.24
37170;BME280;23062;13.952;100.608;2023-01-16T00:55:52;1012.45;;;28.78;62.42
37170;BME280;23062;13.952;100.608;2023-01-16T01:00:19;1012.55;;;28.64;62.72
37170;BME280;23062;13.952;100.608;2023-01-16T01:04:45;1012.55;;;28.75;62.53
37170;BME280;23062;13.952;100.608;2023-01-16T01:09:11;1012.60;;;28.83;62.40
37170;BME280;23062;13.952;100.608;2023-01-16T01:13:38;1012.70;;;28.76;62.88
37170;BME280;23062;13.952;100.608;2023-01-16T01:18:06;1012.74;;;28.80;62.79
37170;BME280;23062;13.952;100.608;2023-01-16T01:22:33;1012.91;;;28.90;63.03
37170;BME280;23062;13.952;100.608;2023-01-16T01:26:59;1013.01;;;28.92;62.95
37170;BME280;23062;13.952;100.608;2023-01-16T01:31:25;1013.12;;;28.87;63.78
37170;BME280;23062;13.952;100.608;2023-01-16T01:35:52;1013.21;;;28.97;63.67
37170;BME280;23062;13.952;100.608;2023-01-16T01:40:20;1013.27;;;29.05;63.60
37170;BME280;23062;13.952;100.608;2023-01-16T01:44:57;1013.29;;;29.10;63.99
37170;BME280;23062;13.952;100.608;2023-01-16T01:49:30;1013.31;;;29.21;63.70
37170;BME280;23062;13.952;100.608;2023-01-16T01:53:58;1013.37;;;29.23;63.47
37170;BME280;23062;13.952;100.608;2023-01-16T01:58:25;1013.42;;;29.31;63.34
37170;BME280;23062;13.952;100.608;2023-01-16T02:03:05;1013.49;;;29.33;63.79
37170;BME280;23062;13.952;100.608;2023-01-16T02:07:29;1013.54;;;29.38;64.04
37170;BME280;23062;13.952;100.608;2023-01-16T02:12:14;1013.50;;;29.42;64.40
37170;BME280;23062;13.952;100.608;2023-01-16T02:16:36;1013.56;;;29.41;64.74
37170;BME280;23062;13.952;100.608;2023-01-16T02:31:03;1013.61;;;29.61;64.34
37170;BME280;23062;13.952;100.608;2023-01-16T02:35:51;1013.58;;;29.66;63.80
37170;BME280;23062;13.952;100.608;2023-01-16T02:40:22;1013.61;;;29.66;63.81
37170;BME280;23062;13.952;100.608;2023-01-16T02:49:38;1013.61;;;29.74;64.35
37170;BME280;23062;13.952;100.608;2023-01-16T02:54:05;1013.63;;;29.79;64.09
37170;BME280;23062;13.952;100.608;2023-01-16T02:58:32;1013.57;;;29.79;63.77
37170;BME280;23062;13.952;100.608;2023-01-16T03:02:58;1013.57;;;29.83;62.95
37170;BME280;23062;13.952;100.608;2023-01-16T03:12:07;1013.46;;;29.91;62.60
37170;BME280;23062;13.952;100.608;2023-01-16T03:16:44;1013.52;;;29.98;62.12
37170;BME280;23062;13.952;100.608;2023-01-16T03:21:41;1013.45;;;30.02;62.07
37170;BME280;23062;13.952;100.608;2023-01-16T03:26:04;1013.50;;;30.08;61.44
37170;BME280;23062;13.952;100.608;2023-01-16T03:30:36;1013.48;;;30.07;61.17
37170;BME280;23062;13.952;100.608;2023-01-16T03:35:01;1013.46;;;30.11;61.94
37170;BME280;23062;13.952;100.608;2023-01-16T03:39:30;1013.41;;;30.13;60.96
37170;BME280;23062;13.952;100.608;2023-01-16T03:43:59;1013.40;;;30.15;61.15
37170;BME280;23062;13.952;100.608;2023-01-16T03:53:12;1013.26;;;30.21;60.04
37170;BME280;23062;13.952;100.608;2023-01-16T03:57:41;1013.22;;;30.26;59.59
37170;BME280;23062;13.952;100.608;2023-01-16T04:02:11;1013.21;;;30.30;58.68
37170;BME280;23062;13.952;100.608;2023-01-16T04:11:10;1013.04;;;30.34;58.13
37170;BME280;23062;13.952;100.608;2023-01-16T04:15:45;1013.02;;;30.40;56.94
37170;BME280;23062;13.952;100.608;2023-01-16T04:20:07;1012.94;;;30.42;56.62
37170;BME280;23062;13.952;100.608;2023-01-16T04:24:36;1012.94;;;30.39;56.00
37170;BME280;23062;13.952;100.608;2023-01-16T04:29:04;1012.84;;;30.42;56.25
37170;BME280;23062;13.952;100.608;2023-01-16T04:33:30;1012.74;;;30.44;56.12
37170;BME280;23062;13.952;100.608;2023-01-16T04:38:00;1012.67;;;30.44;55.97
37170;BME280;23062;13.952;100.608;2023-01-16T04:42:26;1012.57;;;30.44;55.82
37170;BME280;23062;13.952;100.608;2023-01-16T04:46:53;1012.48;;;30.43;55.72
37170;BME280;23062;13.952;100.608;2023-01-16T04:51:19;1012.39;;;30.42;55.38
37170;BME280;23062;13.952;100.608;2023-01-16T04:55:45;1012.27;;;30.41;55.83
37170;BME280;23062;13.952;100.608;2023-01-16T05:00:13;1012.22;;;30.45;55.55
37170;BME280;23062;13.952;100.608;2023-01-16T05:04:39;1012.16;;;30.47;55.63
37170;BME280;23062;13.952;100.608;2023-01-16T05:09:05;1012.06;;;30.46;55.45
37170;BME280;23062;13.952;100.608;2023-01-16T05:13:31;1011.92;;;30.48;54.94
37170;BME280;23062;13.952;100.608;2023-01-16T05:17:58;1011.77;;;30.49;54.72
37170;BME280;23062;13.952;100.608;2023-01-16T05:22:24;1011.70;;;30.51;54.63
37170;BME280;23062;13.952;100.608;2023-01-16T05:26:50;1011.61;;;30.50;53.80
37170;BME280;23062;13.952;100.608;2023-01-16T05:31:17;1011.52;;;30.52;53.63
37170;BME280;23062;13.952;100.608;2023-01-16T05:35:45;1011.37;;;30.55;53.45
37170;BME280;23062;13.952;100.608;2023-01-16T05:40:12;1011.27;;;30.58;54.64
37170;BME280;23062;13.952;100.608;2023-01-16T05:44:37;1011.10;;;30.59;52.89
37170;BME280;23062;13.952;100.608;2023-01-16T05:49:04;1011.11;;;30.75;51.07
37170;BME280;23062;13.952;100.608;2023-01-16T05:53:30;1011.03;;;30.78;48.81
37170;BME280;23062;13.952;100.608;2023-01-16T05:57:55;1010.94;;;30.76;48.63
37170;BME280;23062;13.952;100.608;2023-01-16T06:02:22;1010.88;;;30.83;45.98
37170;BME280;23062;13.952;100.608;2023-01-16T06:06:48;1010.74;;;30.86;46.20
37170;BME280;23062;13.952;100.608;2023-01-16T06:11:13;1010.61;;;30.90;45.95
37170;BME280;23062;13.952;100.608;2023-01-16T06:15:39;1010.48;;;31.00;45.89
37170;BME280;23062;13.952;100.608;2023-01-16T06:20:09;1010.39;;;31.08;44.92
37170;BME280;23062;13.952;100.608;2023-01-16T06:24:36;1010.33;;;31.07;44.89
37170;BME280;23062;13.952;100.608;2023-01-16T06:29:02;1010.25;;;31.02;43.50
37170;BME280;23062;13.952;100.608;2023-01-16T06:33:29;1010.16;;;31.05;44.69
37170;BME280;23062;13.952;100.608;2023-01-16T06:37:56;1010.02;;;31.00;43.61
37170;BME280;23062;13.952;100.608;2023-01-16T06:42:22;1009.96;;;30.98;44.68
37170;BME280;23062;13.952;100.608;2023-01-16T06:46:49;1009.84;;;30.96;43.72
37170;BME280;23062;13.952;100.608;2023-01-16T06:51:16;1009.74;;;30.98;43.85
37170;BME280;23062;13.952;100.608;2023-01-16T06:55:42;1009.75;;;31.14;40.32
37170;BME280;23062;13.952;100.608;2023-01-16T07:00:11;1009.56;;;31.30;39.00
37170;BME280;23062;13.952;100.608;2023-01-16T07:04:38;1009.51;;;31.34;38.51
37170;BME280;23062;13.952;100.608;2023-01-16T07:09:05;1009.44;;;31.46;37.53
37170;BME280;23062;13.952;100.608;2023-01-16T07:13:32;1009.37;;;31.50;37.50
37170;BME280;23062;13.952;100.608;2023-01-16T07:17:59;1009.32;;;31.79;35.34
37170;BME280;23062;13.952;100.608;2023-01-16T07:22:43;1009.22;;;31.66;34.64
37170;BME280;23062;13.952;100.608;2023-01-16T07:27:10;1009.23;;;31.64;33.55
37170;BME280;23062;13.952;100.608;2023-01-16T07:31:37;1009.07;;;31.49;35.26
37170;BME280;23062;13.952;100.608;2023-01-16T07:36:05;1009.02;;;31.41;35.09
37170;BME280;23062;13.952;100.608;2023-01-16T07:40:31;1009.03;;;31.35;34.37
37170;BME280;23062;13.952;100.608;2023-01-16T07:44:58;1008.97;;;31.42;34.08
37170;BME280;23062;13.952;100.608;2023-01-16T07:49:24;1008.97;;;31.45;34.39
37170;BME280;23062;13.952;100.608;2023-01-16T07:53:51;1008.95;;;31.44;33.71
37170;BME280;23062;13.952;100.608;2023-01-16T07:58:18;1008.85;;;31.40;34.34
37170;BME280;23062;13.952;100.608;2023-01-16T08:02:45;1008.81;;;31.36;34.11
37170;BME280;23062;13.952;100.608;2023-01-16T08:07:12;1008.82;;;31.43;34.21
37170;BME280;23062;13.952;100.608;2023-01-16T08:11:39;1008.78;;;31.41;34.40
37170;BME280;23062;13.952;100.608;2023-01-16T08:16:07;1008.73;;;31.40;34.84
37170;BME280;23062;13.952;100.608;2023-01-16T08:20:33;1008.65;;;31.45;34.28
37170;BME280;23062;13.952;100.608;2023-01-16T08:25:00;1008.63;;;31.48;35.19
37170;BME280;23062;13.952;100.608;2023-01-16T08:29:26;1008.64;;;31.44;34.77
37170;BME280;23062;13.952;100.608;2023-01-16T08:33:55;1008.66;;;31.62;34.25
37170;BME280;23062;13.952;100.608;2023-01-16T08:38:22;1008.62;;;31.61;34.83
37170;BME280;23062;13.952;100.608;2023-01-16T08:42:48;1008.68;;;31.54;34.81
37170;BME280;23062;13.952;100.608;2023-01-16T08:47:33;1008.64;;;31.59;35.00
37170;BME280;23062;13.952;100.608;2023-01-16T08:52:17;1008.68;;;31.51;36.11
37170;BME280;23062;13.952;100.608;2023-01-16T08:56:44;1008.68;;;31.54;35.76
37170;BME280;23062;13.952;100.608;2023-01-16T09:01:11;1008.67;;;31.52;36.29
37170;BME280;23062;13.952;100.608;2023-01-16T09:05:38;1008.68;;;31.44;36.88
37170;BME280;23062;13.952;100.608;2023-01-16T09:10:06;1008.74;;;31.38;36.78
37170;BME280;23062;13.952;100.608;2023-01-16T09:14:39;1008.79;;;31.35;37.27
37170;BME280;23062;13.952;100.608;2023-01-16T09:19:06;1008.77;;;31.46;36.00
37170;BME280;23062;13.952;100.608;2023-01-16T09:23:33;1008.75;;;31.43;36.63
37170;BME280;23062;13.952;100.608;2023-01-16T09:28:00;1008.73;;;31.40;37.61
37170;BME280;23062;13.952;100.608;2023-01-16T09:32:27;1008.78;;;31.38;37.71
37170;BME280;23062;13.952;100.608;2023-01-16T09:36:54;1008.85;;;31.45;36.55
37170;BME280;23062;13.952;100.608;2023-01-16T09:41:20;1008.86;;;31.43;36.83
37170;BME280;23062;13.952;100.608;2023-01-16T09:50:49;1008.91;;;31.42;37.72
37170;BME280;23062;13.952;100.608;2023-01-16T09:55:31;1008.90;;;31.36;38.14
37170;BME280;23062;13.952;100.608;2023-01-16T10:00:09;1008.95;;;31.36;38.11
37170;BME280;23062;13.952;100.608;2023-01-16T10:04:35;1008.96;;;31.30;38.40
37170;BME280;23062;13.952;100.608;2023-01-16T10:09:12;1008.98;;;31.30;38.30
37170;BME280;23062;13.952;100.608;2023-01-16T10:18:33;1009.12;;;31.32;37.60
37170;BME280;23062;13.952;100.608;2023-01-16T10:23:40;1009.13;;;31.35;37.32
37170;BME280;23062;13.952;100.608;2023-01-16T10:37:03;1009.29;;;31.31;37.60
37170;BME280;23062;13.952;100.608;2023-01-16T10:41:35;1009.32;;;31.28;37.67
37170;BME280;23062;13.952;100.608;2023-01-16T10:46:20;1009.44;;;31.26;38.23
37170;BME280;23062;13.952;100.608;2023-01-16T10:51:05;1009.54;;;31.26;38.35
37170;BME280;23062;13.952;100.608;2023-01-16T10:55:33;1009.60;;;30.96;39.50
37170;BME280;23062;13.952;100.608;2023-01-16T11:00:10;1009.63;;;30.80;39.67
37170;BME280;23062;13.952;100.608;2023-01-16T11:04:35;1009.66;;;30.78;39.98
37170;BME280;23062;13.952;100.608;2023-01-16T11:09:04;1009.69;;;30.78;40.29
37170;BME280;23062;13.952;100.608;2023-01-16T11:13:32;1009.74;;;30.77;40.44
37170;BME280;23062;13.952;100.608;2023-01-16T11:18:22;1009.73;;;30.74;40.83
37170;BME280;23062;13.952;100.608;2023-01-16T11:22:56;1009.77;;;30.77;41.11
37170;BME280;23062;13.952;100.608;2023-01-16T11:27:25;1009.83;;;30.81;41.13
37170;BME280;23062;13.952;100.608;2023-01-16T11:31:58;1009.92;;;30.62;42.04
37170;BME280;23062;13.952;100.608;2023-01-16T11:36:27;1009.97;;;30.54;42.48
37170;BME280;23062;13.952;100.608;2023-01-16T11:40:55;1010.01;;;30.54;42.67
37170;BME280;23062;13.952;100.608;2023-01-16T11:45:23;1010.04;;;30.51;42.89
37170;BME280;23062;13.952;100.608;2023-01-16T11:50:31;1010.19;;;30.54;43.12
37170;BME280;23062;13.952;100.608;2023-01-16T11:54:58;1010.25;;;30.50;43.45
37170;BME280;23062;13.952;100.608;2023-01-16T11:59:57;1010.26;;;30.49;43.74
37170;BME280;23062;13.952;100.608;2023-01-16T12:04:24;1010.33;;;30.48;44.25
37170;BME280;23062;13.952;100.608;2023-01-16T12:09:10;1010.40;;;30.44;44.75
37170;BME280;23062;13.952;100.608;2023-01-16T12:18:41;1010.48;;;30.50;45.69
37170;BME280;23062;13.952;100.608;2023-01-16T12:27:59;1010.64;;;30.47;46.56
37170;BME280;23062;13.952;100.608;2023-01-16T12:32:33;1010.68;;;30.45;46.74
37170;BME280;23062;13.952;100.608;2023-01-16T12:37:09;1010.80;;;30.40;46.99
37170;BME280;23062;13.952;100.608;2023-01-16T12:41:36;1010.90;;;30.40;47.13
37170;BME280;23062;13.952;100.608;2023-01-16T12:46:42;1010.93;;;30.37;47.35
37170;BME280;23062;13.952;100.608;2023-01-16T13:05:27;1011.14;;;30.19;47.55
37170;BME280;23062;13.952;100.608;2023-01-16T13:14:58;1011.21;;;30.72;46.56
37170;BME280;23062;13.952;100.608;2023-01-16T13:19:29;1011.29;;;30.82;46.35
37170;BME280;23062;13.952;100.608;2023-01-16T13:24:10;1011.38;;;30.86;46.52
37170;BME280;23062;13.952;100.608;2023-01-16T13:28:54;1011.46;;;30.88;46.41
37170;BME280;23062;13.952;100.608;2023-01-16T13:33:21;1011.52;;;30.90;46.65
37170;BME280;23062;13.952;100.608;2023-01-16T13:42:55;1011.67;;;30.90;46.66
37170;BME280;23062;13.952;100.608;2023-01-16T13:47:25;1011.73;;;30.89;46.76
37170;BME280;23062;13.952;100.608;2023-01-16T13:51:51;1011.83;;;30.88;46.88
37170;BME280;23062;13.952;100.608;2023-01-16T13:56:23;1011.85;;;30.87;47.02
37170;BME280;23062;13.952;100.608;2023-01-16T14:01:03;1011.82;;;30.86;47.06
37170;BME280;23062;13.952;100.608;2023-01-16T14:19:35;1011.90;;;30.84;46.97
37170;BME280;23062;13.952;100.608;2023-01-16T14:23:59;1011.83;;;30.83;46.95
37170;BME280;23062;13.952;100.608;2023-01-16T14:28:27;1011.85;;;30.82;46.90
37170;BME280;23062;13.952;100.608;2023-01-16T14:32:55;1011.90;;;30.80;46.93
37170;BME280;23062;13.952;100.608;2023-01-16T14:37:31;1011.85;;;30.78;46.98
37170;BME280;23062;13.952;100.608;2023-01-16T14:42:00;1011.89;;;30.79;46.97
37170;BME280;23062;13.952;100.608;2023-01-16T14:46:49;1011.92;;;30.79;46.99
37170;BME280;23062;13.952;100.608;2023-01-16T14:51:31;1011.95;;;30.79;47.09
37170;BME280;23062;13.952;100.608;2023-01-16T14:56:26;1011.99;;;30.79;47.22
37170;BME280;23062;13.952;100.608;2023-01-16T15:00:54;1012.02;;;30.77;47.40
37170;BME280;23062;13.952;100.608;2023-01-16T15:09:54;1011.91;;;30.74;47.74
37170;BME280;23062;13.952;100.608;2023-01-16T15:14:22;1011.92;;;30.73;47.83
37170;BME280;23062;13.952;100.608;2023-01-16T15:18:51;1011.93;;;30.72;48.05
37170;BME280;23062;13.952;100.608;2023-01-16T15:23:36;1011.94;;;30.74;48.15
37170;BME280;23062;13.952;100.608;2023-01-16T15:32:58;1011.90;;;30.71;48.39
37170;BME280;23062;13.952;100.608;2023-01-16T15:37:25;1011.89;;;30.72;48.61
37170;BME280;23062;13.952;100.608;2023-01-16T15:42:01;1011.89;;;30.70;48.78
37170;BME280;23062;13.952;100.608;2023-01-16T15:46:52;1011.87;;;30.71;48.86
37170;BME280;23062;13.952;100.608;2023-01-16T15:51:17;1011.85;;;30.70;49.04
37170;BME280;23062;13.952;100.608;2023-01-16T15:55:47;1011.80;;;30.68;49.23
37170;BME280;23062;13.952;100.608;2023-01-16T16:00:34;1011.79;;;30.67;49.28
37170;BME280;23062;13.952;100.608;2023-01-16T16:04:58;1011.81;;;30.68;49.43
37170;BME280;23062;13.952;100.608;2023-01-16T16:09:22;1011.77;;;30.66;49.60
37170;BME280;23062;13.952;100.608;2023-01-16T16:13:49;1011.83;;;30.66;49.72
37170;BME280;23062;13.952;100.608;2023-01-16T16:18:18;1011.81;;;30.64;49.88
37170;BME280;23062;13.952;100.608;2023-01-16T16:22:45;1011.81;;;30.64;49.91
37170;BME280;23062;13.952;100.608;2023-01-16T16:27:15;1011.81;;;30.63;50.00
37170;BME280;23062;13.952;100.608;2023-01-16T16:31:44;1011.80;;;30.63;50.11
37170;BME280;23062;13.952;100.608;2023-01-16T16:36:14;1011.83;;;30.63;50.17
37170;BME280;23062;13.952;100.608;2023-01-16T16:40:42;1011.81;;;30.62;50.34
37170;BME280;23062;13.952;100.608;2023-01-16T16:45:18;1011.77;;;30.62;50.39
37170;BME280;23062;13.952;100.608;2023-01-16T16:49:40;1011.81;;;30.61;50.56
37170;BME280;23062;13.952;100.608;2023-01-16T16:54:13;1011.90;;;30.60;50.59
37170;BME280;23062;13.952;100.608;2023-01-16T16:58:45;1011.97;;;30.60;50.78
37170;BME280;23062;13.952;100.608;2023-01-16T17:03:20;1011.95;;;30.60;50.93
37170;BME280;23062;13.952;100.608;2023-01-16T17:07:48;1011.85;;;30.59;50.92
37170;BME280;23062;13.952;100.608;2023-01-16T17:12:18;1011.83;;;30.58;50.96
37170;BME280;23062;13.952;100.608;2023-01-16T17:16:47;1011.83;;;30.58;51.06
37170;BME280;23062;13.952;100.608;2023-01-16T17:21:15;1011.80;;;30.56;51.10
37170;BME280;23062;13.952;100.608;2023-01-16T17:25:42;1011.82;;;30.56;51.28
37170;BME280;23062;13.952;100.608;2023-01-16T17:30:16;1011.82;;;30.55;51.44
37170;BME280;23062;13.952;100.608;2023-01-16T17:34:38;1011.88;;;30.55;51.47
37170;BME280;23062;13.952;100.608;2023-01-16T17:39:05;1011.89;;;30.54;51.62
37170;BME280;23062;13.952;100.608;2023-01-16T17:43:31;1011.86;;;30.54;51.72
37170;BME280;23062;13.952;100.608;2023-01-16T17:48:14;1011.80;;;30.54;51.85
37170;BME280;23062;13.952;100.608;2023-01-16T17:52:40;1011.73;;;30.52;51.90
37170;BME280;23062;13.952;100.608;2023-01-16T17:57:07;1011.70;;;30.51;52.08
37170;BME280;23062;13.952;100.608;2023-01-16T18:01:33;1011.74;;;30.51;52.16
37170;BME280;23062;13.952;100.608;2023-01-16T18:06:05;1011.74;;;30.51;52.27
37170;BME280;23062;13.952;100.608;2023-01-16T18:10:32;1011.74;;;30.50;52.25
37170;BME280;23062;13.952;100.608;2023-01-16T18:15:00;1011.62;;;30.49;52.40
37170;BME280;23062;13.952;100.608;2023-01-16T18:19:43;1011.55;;;30.50;52.53
37170;BME280;23062;13.952;100.608;2023-01-16T18:24:10;1011.48;;;30.49;52.56
37170;BME280;23062;13.952;100.608;2023-01-16T18:28:36;1011.49;;;30.48;52.74
37170;BME280;23062;13.952;100.608;2023-01-16T18:33:03;1011.42;;;30.47;52.78
37170;BME280;23062;13.952;100.608;2023-01-16T18:37:38;1011.40;;;30.46;52.88
37170;BME280;23062;13.952;100.608;2023-01-16T18:42:04;1011.33;;;30.46;52.90
37170;BME280;23062;13.952;100.608;2023-01-16T18:46:54;1011.26;;;30.46;52.89
37170;BME280;23062;13.952;100.608;2023-01-16T18:51:38;1011.22;;;30.46;52.95
37170;BME280;23062;13.952;100.608;2023-01-16T18:56:30;1011.18;;;30.44;53.06
37170;BME280;23062;13.952;100.608;2023-01-16T19:01:15;1011.13;;;30.43;53.11
37170;BME280;23062;13.952;100.608;2023-01-16T19:05:59;1011.14;;;30.43;53.18
37170;BME280;23062;13.952;100.608;2023-01-16T19:10:28;1011.12;;;30.41;53.27
37170;BME280;23062;13.952;100.608;2023-01-16T19:14:56;1011.12;;;30.39;53.36
37170;BME280;23062;13.952;100.608;2023-01-16T19:19:23;1011.09;;;30.37;53.37
37170;BME280;23062;13.952;100.608;2023-01-16T19:23:50;1011.19;;;30.37;53.43
37170;BME280;23062;13.952;100.608;2023-01-16T19:28:17;1011.16;;;30.36;53.58
37170;BME280;23062;13.952;100.608;2023-01-16T19:32:44;1011.15;;;30.36;53.62
37170;BME280;23062;13.952;100.608;2023-01-16T19:37:11;1011.04;;;30.35;53.71
37170;BME280;23062;13.952;100.608;2023-01-16T19:41:38;1010.96;;;30.33;53.84
37170;BME280;23062;13.952;100.608;2023-01-16T19:46:23;1010.93;;;30.33;53.95
37170;BME280;23062;13.952;100.608;2023-01-16T19:51:07;1010.89;;;30.32;54.01
37170;BME280;23062;13.952;100.608;2023-01-16T19:55:33;1010.92;;;30.30;54.11
37170;BME280;23062;13.952;100.608;2023-01-16T20:00:00;1010.87;;;30.28;54.19
37170;BME280;23062;13.952;100.608;2023-01-16T20:04:29;1010.83;;;30.27;54.20
37170;BME280;23062;13.952;100.608;2023-01-16T20:08:57;1010.79;;;30.15;55.39
37170;BME280;23062;13.952;100.608;2023-01-16T20:13:24;1010.77;;;30.07;55.85
37170;BME280;23062;13.952;100.608;2023-01-16T20:17:51;1010.76;;;29.99;56.31
37170;BME280;23062;13.952;100.608;2023-01-16T20:22:18;1010.75;;;29.93;56.73
37170;BME280;23062;13.952;100.608;2023-01-16T20:26:45;1010.71;;;29.90;57.02
37170;BME280;23062;13.952;100.608;2023-01-16T20:31:15;1010.73;;;29.83;57.36
37170;BME280;23062;13.952;100.608;2023-01-16T20:35:42;1010.71;;;29.80;57.52
37170;BME280;23062;13.952;100.608;2023-01-16T20:40:09;1010.71;;;29.79;57.65
37170;BME280;23062;13.952;100.608;2023-01-16T20:44:36;1010.69;;;29.77;57.74
37170;BME280;23062;13.952;100.608;2023-01-16T20:49:19;1010.72;;;29.74;57.84
37170;BME280;23062;13.952;100.608;2023-01-16T20:53:45;1010.69;;;29.71;58.01
37170;BME280;23062;13.952;100.608;2023-01-16T20:58:13;1010.72;;;29.69;58.06
37170;BME280;23062;13.952;100.608;2023-01-16T21:02:39;1010.80;;;29.66;58.33
37170;BME280;23062;13.952;100.608;2023-01-16T21:07:06;1010.78;;;29.63;58.40
37170;BME280;23062;13.952;100.608;2023-01-16T21:11:32;1010.76;;;29.58;58.49
37170;BME280;23062;13.952;100.608;2023-01-16T21:16:16;1010.78;;;29.35;59.32
37170;BME280;23062;13.952;100.608;2023-01-16T21:21:00;1010.82;;;29.23;59.74
37170;BME280;23062;13.952;100.608;2023-01-16T21:25:52;1010.88;;;29.19;59.94
37170;BME280;23062;13.952;100.608;2023-01-16T21:30:13;1010.91;;;29.11;60.26
37170;BME280;23062;13.952;100.608;2023-01-16T21:34:39;1010.94;;;29.00;60.79
37170;BME280;23062;13.952;100.608;2023-01-16T21:39:06;1010.98;;;28.95;60.93
37170;BME280;23062;13.952;100.608;2023-01-16T21:43:34;1010.99;;;28.91;61.02
37170;BME280;23062;13.952;100.608;2023-01-16T21:48:19;1011.04;;;28.90;61.17
37170;BME280;23062;13.952;100.608;2023-01-16T21:52:47;1011.05;;;28.86;61.33
37170;BME280;23062;13.952;100.608;2023-01-16T21:57:13;1011.05;;;28.10;63.96
37170;BME280;23062;13.952;100.608;2023-01-16T22:01:39;1011.11;;;27.89;64.84
37170;BME280;23062;13.952;100.608;2023-01-16T22:06:07;1011.16;;;27.88;64.89
37170;BME280;23062;13.952;100.608;2023-01-16T22:10:35;1011.20;;;27.84;65.23
37170;BME280;23062;13.952;100.608;2023-01-16T22:15:02;1011.29;;;27.81;65.44
37170;BME280;23062;13.952;100.608;2023-01-16T22:19:46;1011.35;;;27.87;65.34
37170;BME280;23062;13.952;100.608;2023-01-16T22:24:14;1011.40;;;27.85;65.56
37170;BME280;23062;13.952;100.608;2023-01-16T22:28:40;1011.39;;;27.85;65.48
37170;BME280;23062;13.952;100.608;2023-01-16T22:33:06;1011.44;;;27.80;65.84
37170;BME280;23062;13.952;100.608;2023-01-16T22:37:33;1011.47;;;27.78;65.86
37170;BME280;23062;13.952;100.608;2023-01-16T22:41:59;1011.54;;;27.94;65.50
37170;BME280;23062;13.952;100.608;2023-01-16T22:46:25;1011.62;;;28.32;64.13
37170;BME280;23062;13.952;100.608;2023-01-16T22:50:52;1011.69;;;28.45;63.66
37170;BME280;23062;13.952;100.608;2023-01-16T22:55:20;1011.76;;;28.69;62.95
37170;BME280;23062;13.952;100.608;2023-01-16T22:59:46;1011.87;;;28.70;62.61
37170;BME280;23062;13.952;100.608;2023-01-16T23:04:12;1011.93;;;28.72;62.46
37170;BME280;23062;13.952;100.608;2023-01-16T23:08:38;1011.99;;;28.70;62.42
37170;BME280;23062;13.952;100.608;2023-01-16T23:13:04;1012.08;;;28.72;62.38
37170;BME280;23062;13.952;100.608;2023-01-16T23:17:32;1012.12;;;28.69;62.43
37170;BME280;23062;13.952;100.608;2023-01-16T23:21:58;1012.18;;;28.70;62.35
37170;BME280;23062;13.952;100.608;2023-01-16T23:26:25;1012.20;;;28.68;62.29
37170;BME280;23062;13.952;100.608;2023-01-16T23:30:52;1012.24;;;28.70;62.16
37170;BME280;23062;13.952;100.608;2023-01-16T23:35:18;1012.32;;;28.69;62.04
37170;BME280;23062;13.952;100.608;2023-01-16T23:39:45;1012.38;;;28.67;62.19
37170;BME280;23062;13.952;100.608;2023-01-16T23:44:15;1012.50;;;28.70;62.15
37170;BME280;23062;13.952;100.608;2023-01-16T23:48:55;1012.63;;;28.68;62.07
37170;BME280;23062;13.952;100.608;2023-01-16T23:53:22;1012.77;;;28.67;62.01
37170;BME280;23062;13.952;100.608;2023-01-16T23:57:48;1012.80;;;28.64;62.18
